This is the latest recevied weather packets stored in our database for station/object N7BTW-13. If no packets are shown the sender has not sent any weather packets the latest 10 day(s).
| Time | Temp. | Humidity | Pressure | Rain* | Wind** | Luminosity | Snow |
|---|---|---|---|---|---|---|---|
| 1787463607 | 17.22° C | 80% | - | 0 mm | - | - | - |
| 1787463008 | 17.22° C | 80% | - | 0 mm | - | - | - |
| 1787462408 | 17.22° C | 79% | - | 0 mm | - | - | - |
| 1787461806 | 17.22° C | 79% | - | 0 mm | - | - | - |
| 1787461208 | 17.22° C | 78% | - | 0 mm | - | - | - |
| 1787460608 | 17.22° C | 78% | - | 0 mm | - | - | - |
| 1787460010 | 17.78° C | 76% | - | 0 mm | - | - | - |
| 1787459409 | 17.78° C | 75% | - | 0 mm | - | - | - |
| 1787458809 | 18.33° C | 74% | - | 0 mm | - | - | - |
| 1787458209 | 18.33° C | 74% | - | 0 mm | - | - | - |
| 1787457610 | 18.33° C | 73% | - | 0 mm | - | - | - |
| 1787457008 | 18.89° C | 71% | - | 0 mm | - | - | - |
| 1787456411 | 19.44° C | 70% | - | 0 mm | - | - | - |
| 1787455808 | 19.44° C | 69% | - | 0 mm | - | - | - |
| 1787455206 | 20° C | 67% | - | 0 mm | - | - | - |
| 1787454606 | 20.56° C | 65% | - | 0 mm | - | - | - |
| 1787454007 | 21.11° C | 63% | - | 0 mm | - | - | - |
| 1787453406 | 21.67° C | 61% | - | 0 mm | - | - | - |
| 1787452810 | 22.78° C | 58% | - | 0 mm | - | - | - |
| 1787452208 | 23.89° C | 55% | - | 0 mm | - | - | - |
| 1787451607 | 23.33° C | 55% | - | 0 mm | - | - | - |
| 1787451007 | 24.44° C | 53% | - | 0 mm | - | - | - |
| 1787450409 | 25° C | 55% | - | 0 mm | - | - | - |
| 1787449809 | 24.44° C | 58% | - | 0 mm | - | - | - |
| 1787449214 | 24.44° C | 58% | - | 0 mm | - | - | - |
* Rain latest hour (hover to see other rain measurements)
** Current wind speed in m/s (hover to see current wind gust speed)